sensor_id;sensor_type;location;lat;lon;timestamp;temperature;humidity
51253;DHT22;38936;47.808;19.936;2022-10-26T00:02:22;10.90;99.90
51253;DHT22;38936;47.808;19.936;2022-10-26T00:04:48;10.80;99.90
51253;DHT22;38936;47.808;19.936;2022-10-26T00:07:13;10.70;99.90
51253;DHT22;38936;47.808;19.936;2022-10-26T00:09:39;10.60;99.90
51253;DHT22;38936;47.808;19.936;2022-10-26T00:12:04;10.60;99.90
51253;DHT22;38936;47.808;19.936;2022-10-26T00:14:30;10.50;99.90
51253;DHT22;38936;47.808;19.936;2022-10-26T00:16:56;10.40;99.90
51253;DHT22;38936;47.808;19.936;2022-10-26T00:19:21;10.40;99.90
51253;DHT22;38936;47.808;19.936;2022-10-26T00:21:47;10.30;99.90
51253;DHT22;38936;47.808;19.936;2022-10-26T00:24:13;10.40;99.90
51253;DHT22;38936;47.808;19.936;2022-10-26T00:26:39;10.20;99.90
51253;DHT22;38936;47.808;19.936;2022-10-26T00:29:04;10.20;99.90
51253;DHT22;38936;47.808;19.936;2022-10-26T00:31:30;10.10;99.90
51253;DHT22;38936;47.808;19.936;2022-10-26T00:33:56;10.20;99.90
51253;DHT22;38936;47.808;19.936;2022-10-26T00:36:24;10.10;99.90
51253;DHT22;38936;47.808;19.936;2022-10-26T00:38:52;10.20;99.90
51253;DHT22;38936;47.808;19.936;2022-10-26T00:41:37;10.30;99.90
51253;DHT22;38936;47.808;19.936;2022-10-26T00:47:09;10.30;99.90
51253;DHT22;38936;47.808;19.936;2022-10-26T00:49:35;10.30;99.90
51253;DHT22;38936;47.808;19.936;2022-10-26T00:52:01;10.40;99.90
51253;DHT22;38936;47.808;19.936;2022-10-26T00:54:27;10.30;99.90
51253;DHT22;38936;47.808;19.936;2022-10-26T00:56:52;10.40;99.90
51253;DHT22;38936;47.808;19.936;2022-10-26T00:59:20;10.30;99.90
51253;DHT22;38936;47.808;19.936;2022-10-26T01:01:47;10.30;99.90
51253;DHT22;38936;47.808;19.936;2022-10-26T01:04:14;10.30;99.90
51253;DHT22;38936;47.808;19.936;2022-10-26T01:06:41;10.20;99.90
51253;DHT22;38936;47.808;19.936;2022-10-26T01:09:08;10.20;99.90
51253;DHT22;38936;47.808;19.936;2022-10-26T01:11:34;10.20;99.90
51253;DHT22;38936;47.808;19.936;2022-10-26T01:14:00;10.40;99.90
51253;DHT22;38936;47.808;19.936;2022-10-26T01:16:43;10.50;99.90
51253;DHT22;38936;47.808;19.936;2022-10-26T01:22:35;10.80;99.90
51253;DHT22;38936;47.808;19.936;2022-10-26T01:27:57;11.00;99.90
51253;DHT22;38936;47.808;19.936;2022-10-26T01:38:13;11.20;99.90
51253;DHT22;38936;47.808;19.936;2022-10-26T01:43:30;11.20;99.90
51253;DHT22;38936;47.808;19.936;2022-10-26T01:45:58;11.10;99.90
51253;DHT22;38936;47.808;19.936;2022-10-26T01:48:24;11.20;99.90
51253;DHT22;38936;47.808;19.936;2022-10-26T01:50:52;11.30;99.90
51253;DHT22;38936;47.808;19.936;2022-10-26T01:53:19;11.30;99.90
51253;DHT22;38936;47.808;19.936;2022-10-26T01:55:50;11.40;99.90
51253;DHT22;38936;47.808;19.936;2022-10-26T01:58:53;11.50;99.90
51253;DHT22;38936;47.808;19.936;2022-10-26T02:09:13;11.90;99.90
51253;DHT22;38936;47.808;19.936;2022-10-26T02:11:45;12.00;99.90
51253;DHT22;38936;47.808;19.936;2022-10-26T02:14:20;12.00;99.90
51253;DHT22;38936;47.808;19.936;2022-10-26T02:19:59;12.10;99.90
51253;DHT22;38936;47.808;19.936;2022-10-26T02:24:47;12.10;99.90
51253;DHT22;38936;47.808;19.936;2022-10-26T02:27:20;12.00;99.90
51253;DHT22;38936;47.808;19.936;2022-10-26T02:29:49;11.90;99.90
51253;DHT22;38936;47.808;19.936;2022-10-26T02:32:17;11.80;99.90
51253;DHT22;38936;47.808;19.936;2022-10-26T02:34:45;11.70;99.90
51253;DHT22;38936;47.808;19.936;2022-10-26T02:37:14;11.80;99.90
51253;DHT22;38936;47.808;19.936;2022-10-26T02:39:40;11.70;99.90
51253;DHT22;38936;47.808;19.936;2022-10-26T02:42:08;11.70;99.90
51253;DHT22;38936;47.808;19.936;2022-10-26T02:44:44;11.60;99.90
51253;DHT22;38936;47.808;19.936;2022-10-26T02:47:11;11.60;99.90
51253;DHT22;38936;47.808;19.936;2022-10-26T02:49:37;11.50;99.90
51253;DHT22;38936;47.808;19.936;2022-10-26T02:52:15;11.30;99.90
51253;DHT22;38936;47.808;19.936;2022-10-26T02:57:34;11.00;99.90
51253;DHT22;38936;47.808;19.936;2022-10-26T03:00:08;10.90;99.90
51253;DHT22;38936;47.808;19.936;2022-10-26T03:02:35;10.80;99.90
51253;DHT22;38936;47.808;19.936;2022-10-26T03:05:22;10.80;99.90
51253;DHT22;38936;47.808;19.936;2022-10-26T03:07:50;10.80;99.90
51253;DHT22;38936;47.808;19.936;2022-10-26T03:10:16;10.70;99.90
51253;DHT22;38936;47.808;19.936;2022-10-26T03:12:41;10.60;99.90
51253;DHT22;38936;47.808;19.936;2022-10-26T03:15:07;10.50;99.90
51253;DHT22;38936;47.808;19.936;2022-10-26T03:17:33;10.50;99.90
51253;DHT22;38936;47.808;19.936;2022-10-26T03:19:58;10.40;99.90
51253;DHT22;38936;47.808;19.936;2022-10-26T03:22:24;10.40;99.90
51253;DHT22;38936;47.808;19.936;2022-10-26T03:24:49;10.30;99.90
51253;DHT22;38936;47.808;19.936;2022-10-26T03:27:15;10.30;99.90
51253;DHT22;38936;47.808;19.936;2022-10-26T03:29:40;10.20;99.90
51253;DHT22;38936;47.808;19.936;2022-10-26T03:32:06;10.20;99.90
51253;DHT22;38936;47.808;19.936;2022-10-26T03:34:32;10.20;99.90
51253;DHT22;38936;47.808;19.936;2022-10-26T03:36:58;10.20;99.90
51253;DHT22;38936;47.808;19.936;2022-10-26T03:39:23;10.20;99.90
51253;DHT22;38936;47.808;19.936;2022-10-26T03:41:49;10.20;99.90
51253;DHT22;38936;47.808;19.936;2022-10-26T03:44:14;10.10;99.90
51253;DHT22;38936;47.808;19.936;2022-10-26T03:46:40;10.10;99.90
51253;DHT22;38936;47.808;19.936;2022-10-26T03:49:06;10.10;99.90
51253;DHT22;38936;47.808;19.936;2022-10-26T03:51:31;10.10;99.90
51253;DHT22;38936;47.808;19.936;2022-10-26T03:53:57;10.10;99.90
51253;DHT22;38936;47.808;19.936;2022-10-26T03:56:22;10.00;99.90
51253;DHT22;38936;47.808;19.936;2022-10-26T03:58:48;10.00;99.90
51253;DHT22;38936;47.808;19.936;2022-10-26T04:01:13;10.00;99.90
51253;DHT22;38936;47.808;19.936;2022-10-26T04:03:39;9.90;99.90
51253;DHT22;38936;47.808;19.936;2022-10-26T04:06:05;9.80;99.90
51253;DHT22;38936;47.808;19.936;2022-10-26T04:08:30;9.80;99.90
51253;DHT22;38936;47.808;19.936;2022-10-26T04:10:56;9.70;99.90
51253;DHT22;38936;47.808;19.936;2022-10-26T04:13:21;9.60;99.90
51253;DHT22;38936;47.808;19.936;2022-10-26T04:15:47;9.60;99.90
51253;DHT22;38936;47.808;19.936;2022-10-26T04:18:12;9.60;99.90
51253;DHT22;38936;47.808;19.936;2022-10-26T04:20:39;9.60;99.90
51253;DHT22;38936;47.808;19.936;2022-10-26T04:23:10;9.60;99.90
51253;DHT22;38936;47.808;19.936;2022-10-26T04:25:36;9.50;99.90
51253;DHT22;38936;47.808;19.936;2022-10-26T04:28:02;9.50;99.90
51253;DHT22;38936;47.808;19.936;2022-10-26T04:30:28;9.50;99.90
51253;DHT22;38936;47.808;19.936;2022-10-26T04:32:54;9.40;99.90
51253;DHT22;38936;47.808;19.936;2022-10-26T04:35:20;9.40;99.90
51253;DHT22;38936;47.808;19.936;2022-10-26T04:37:46;9.40;99.90
51253;DHT22;38936;47.808;19.936;2022-10-26T04:40:11;9.30;99.90
51253;DHT22;38936;47.808;19.936;2022-10-26T04:42:45;9.30;99.90
51253;DHT22;38936;47.808;19.936;2022-10-26T04:45:12;9.30;99.90
51253;DHT22;38936;47.808;19.936;2022-10-26T04:47:38;9.20;99.90
51253;DHT22;38936;47.808;19.936;2022-10-26T04:50:05;9.20;99.90
51253;DHT22;38936;47.808;19.936;2022-10-26T04:52:31;9.10;99.90
51253;DHT22;38936;47.808;19.936;2022-10-26T04:54:56;9.10;99.90
51253;DHT22;38936;47.808;19.936;2022-10-26T04:57:22;9.10;99.90
51253;DHT22;38936;47.808;19.936;2022-10-26T04:59:48;9.00;99.90
51253;DHT22;38936;47.808;19.936;2022-10-26T05:02:13;9.00;99.90
51253;DHT22;38936;47.808;19.936;2022-10-26T05:04:39;9.00;99.90
51253;DHT22;38936;47.808;19.936;2022-10-26T05:07:04;9.00;99.90
51253;DHT22;38936;47.808;19.936;2022-10-26T05:09:30;8.90;99.90
51253;DHT22;38936;47.808;19.936;2022-10-26T05:11:56;8.90;99.90
51253;DHT22;38936;47.808;19.936;2022-10-26T05:14:21;8.90;99.90
51253;DHT22;38936;47.808;19.936;2022-10-26T05:16:47;8.90;99.90
51253;DHT22;38936;47.808;19.936;2022-10-26T05:19:14;9.00;99.90
51253;DHT22;38936;47.808;19.936;2022-10-26T05:21:40;9.00;99.90
51253;DHT22;38936;47.808;19.936;2022-10-26T05:24:05;9.00;99.90
51253;DHT22;38936;47.808;19.936;2022-10-26T05:26:31;9.20;99.90
51253;DHT22;38936;47.808;19.936;2022-10-26T05:28:57;9.20;99.90
51253;DHT22;38936;47.808;19.936;2022-10-26T05:31:22;9.30;99.90
51253;DHT22;38936;47.808;19.936;2022-10-26T05:33:49;9.30;99.90
51253;DHT22;38936;47.808;19.936;2022-10-26T05:36:18;9.20;99.90
51253;DHT22;38936;47.808;19.936;2022-10-26T05:38:44;9.20;99.90
51253;DHT22;38936;47.808;19.936;2022-10-26T05:41:09;9.20;99.90
51253;DHT22;38936;47.808;19.936;2022-10-26T05:43:35;9.20;99.90
51253;DHT22;38936;47.808;19.936;2022-10-26T05:46:01;9.30;99.90
51253;DHT22;38936;47.808;19.936;2022-10-26T05:48:26;9.30;99.90
51253;DHT22;38936;47.808;19.936;2022-10-26T05:50:52;9.40;99.90
51253;DHT22;38936;47.808;19.936;2022-10-26T05:53:17;9.50;99.90
51253;DHT22;38936;47.808;19.936;2022-10-26T05:55:44;9.50;99.90
51253;DHT22;38936;47.808;19.936;2022-10-26T05:58:10;9.60;99.90
51253;DHT22;38936;47.808;19.936;2022-10-26T06:03:25;9.80;99.90
51253;DHT22;38936;47.808;19.936;2022-10-26T06:05:56;9.90;99.90
51253;DHT22;38936;47.808;19.936;2022-10-26T06:08:25;10.00;99.90
51253;DHT22;38936;47.808;19.936;2022-10-26T06:10:51;10.10;99.90
51253;DHT22;38936;47.808;19.936;2022-10-26T06:13:18;10.20;99.90
51253;DHT22;38936;47.808;19.936;2022-10-26T06:18:15;10.50;99.90
51253;DHT22;38936;47.808;19.936;2022-10-26T06:23:48;10.90;99.90
51253;DHT22;38936;47.808;19.936;2022-10-26T06:31:31;11.80;99.90
51253;DHT22;38936;47.808;19.936;2022-10-26T06:33:57;12.20;99.90
51253;DHT22;38936;47.808;19.936;2022-10-26T06:36:26;12.40;99.90
51253;DHT22;38936;47.808;19.936;2022-10-26T06:39:18;12.40;99.90
51253;DHT22;38936;47.808;19.936;2022-10-26T06:41:44;12.40;99.90
51253;DHT22;38936;47.808;19.936;2022-10-26T06:44:18;12.40;99.90
51253;DHT22;38936;47.808;19.936;2022-10-26T06:49:55;12.40;99.90
51253;DHT22;38936;47.808;19.936;2022-10-26T06:52:30;12.40;99.90
51253;DHT22;38936;47.808;19.936;2022-10-26T06:54:56;12.40;99.90
51253;DHT22;38936;47.808;19.936;2022-10-26T06:57:22;12.50;99.90
51253;DHT22;38936;47.808;19.936;2022-10-26T07:00:13;12.50;99.90
51253;DHT22;38936;47.808;19.936;2022-10-26T07:02:41;12.60;99.90
51253;DHT22;38936;47.808;19.936;2022-10-26T07:05:06;12.60;99.90
51253;DHT22;38936;47.808;19.936;2022-10-26T07:07:40;12.70;99.90
51253;DHT22;38936;47.808;19.936;2022-10-26T07:10:07;12.70;99.90
51253;DHT22;38936;47.808;19.936;2022-10-26T07:12:32;12.70;99.90
51253;DHT22;38936;47.808;19.936;2022-10-26T07:14:58;12.80;99.90
51253;DHT22;38936;47.808;19.936;2022-10-26T07:17:25;13.00;99.90
51253;DHT22;38936;47.808;19.936;2022-10-26T07:19:53;13.00;99.90
51253;DHT22;38936;47.808;19.936;2022-10-26T07:22:19;13.20;99.90
51253;DHT22;38936;47.808;19.936;2022-10-26T07:24:44;13.30;99.90
51253;DHT22;38936;47.808;19.936;2022-10-26T07:27:14;13.60;99.90
51253;DHT22;38936;47.808;19.936;2022-10-26T07:29:39;13.60;99.90
51253;DHT22;38936;47.808;19.936;2022-10-26T07:32:05;13.90;99.90
51253;DHT22;38936;47.808;19.936;2022-10-26T07:34:30;14.10;99.90
51253;DHT22;38936;47.808;19.936;2022-10-26T07:36:57;14.10;99.90
51253;DHT22;38936;47.808;19.936;2022-10-26T07:39:23;14.40;99.90
51253;DHT22;38936;47.808;19.936;2022-10-26T07:41:49;14.50;99.90
51253;DHT22;38936;47.808;19.936;2022-10-26T07:44:14;14.70;99.90
51253;DHT22;38936;47.808;19.936;2022-10-26T07:46:40;14.70;99.90
51253;DHT22;38936;47.808;19.936;2022-10-26T07:49:06;14.90;99.90
51253;DHT22;38936;47.808;19.936;2022-10-26T07:51:31;15.10;99.90
51253;DHT22;38936;47.808;19.936;2022-10-26T07:53:57;15.40;99.90
51253;DHT22;38936;47.808;19.936;2022-10-26T07:56:22;15.70;99.90
51253;DHT22;38936;47.808;19.936;2022-10-26T07:58:53;15.90;99.90
51253;DHT22;38936;47.808;19.936;2022-10-26T08:01:20;16.10;99.90
51253;DHT22;38936;47.808;19.936;2022-10-26T08:03:45;16.30;99.90
51253;DHT22;38936;47.808;19.936;2022-10-26T08:06:12;16.70;99.90
51253;DHT22;38936;47.808;19.936;2022-10-26T08:08:38;17.10;99.90
51253;DHT22;38936;47.808;19.936;2022-10-26T08:11:04;17.70;99.90
51253;DHT22;38936;47.808;19.936;2022-10-26T08:13:30;18.40;99.90
51253;DHT22;38936;47.808;19.936;2022-10-26T08:16:02;18.80;99.90
51253;DHT22;38936;47.808;19.936;2022-10-26T08:18:27;19.30;99.90
51253;DHT22;38936;47.808;19.936;2022-10-26T08:20:54;19.50;99.90
51253;DHT22;38936;47.808;19.936;2022-10-26T08:23:20;19.60;99.90
51253;DHT22;38936;47.808;19.936;2022-10-26T08:25:46;19.60;99.90
51253;DHT22;38936;47.808;19.936;2022-10-26T08:28:11;19.60;99.90
51253;DHT22;38936;47.808;19.936;2022-10-26T08:30:37;19.60;99.90
51253;DHT22;38936;47.808;19.936;2022-10-26T08:33:05;19.50;99.90
51253;DHT22;38936;47.808;19.936;2022-10-26T08:35:31;19.70;99.90
51253;DHT22;38936;47.808;19.936;2022-10-26T08:37:57;20.30;99.90
51253;DHT22;38936;47.808;19.936;2022-10-26T08:40:32;21.00;99.90
51253;DHT22;38936;47.808;19.936;2022-10-26T08:43:09;21.80;99.90
51253;DHT22;38936;47.808;19.936;2022-10-26T08:45:40;22.40;99.90
51253;DHT22;38936;47.808;19.936;2022-10-26T08:48:31;22.90;99.40
51253;DHT22;38936;47.808;19.936;2022-10-26T08:51:18;23.40;97.90
51253;DHT22;38936;47.808;19.936;2022-10-26T08:54:10;23.80;96.50
51253;DHT22;38936;47.808;19.936;2022-10-26T08:56:44;24.10;95.70
51253;DHT22;38936;47.808;19.936;2022-10-26T09:02:01;24.80;92.70
51253;DHT22;38936;47.808;19.936;2022-10-26T09:04:28;24.70;92.30
51253;DHT22;38936;47.808;19.936;2022-10-26T09:12:46;24.60;91.70
51253;DHT22;38936;47.808;19.936;2022-10-26T09:25:47;25.10;91.60
51253;DHT22;38936;47.808;19.936;2022-10-26T09:28:17;25.20;90.20
51253;DHT22;38936;47.808;19.936;2022-10-26T09:30:44;25.20;89.60
51253;DHT22;38936;47.808;19.936;2022-10-26T09:33:21;25.20;89.10
51253;DHT22;38936;47.808;19.936;2022-10-26T09:36:05;25.10;87.50
51253;DHT22;38936;47.808;19.936;2022-10-26T09:41:23;23.90;90.50
51253;DHT22;38936;47.808;19.936;2022-10-26T09:46:34;22.90;92.10
51253;DHT22;38936;47.808;19.936;2022-10-26T09:49:07;22.40;93.10
51253;DHT22;38936;47.808;19.936;2022-10-26T09:51:37;21.90;94.80
51253;DHT22;38936;47.808;19.936;2022-10-26T09:54:14;21.70;95.60
51253;DHT22;38936;47.808;19.936;2022-10-26T09:56:43;21.40;96.70
51253;DHT22;38936;47.808;19.936;2022-10-26T09:59:12;21.10;96.90
51253;DHT22;38936;47.808;19.936;2022-10-26T10:01:40;20.80;98.40
51253;DHT22;38936;47.808;19.936;2022-10-26T10:04:16;20.50;99.80
51253;DHT22;38936;47.808;19.936;2022-10-26T10:07:16;20.40;99.90
51253;DHT22;38936;47.808;19.936;2022-10-26T10:09:42;20.20;99.80
51253;DHT22;38936;47.808;19.936;2022-10-26T10:12:19;20.10;99.90
51253;DHT22;38936;47.808;19.936;2022-10-26T10:14:54;20.00;99.90
51253;DHT22;38936;47.808;19.936;2022-10-26T10:17:22;19.70;99.90
51253;DHT22;38936;47.808;19.936;2022-10-26T10:19:48;19.60;99.90
51253;DHT22;38936;47.808;19.936;2022-10-26T10:24:41;19.40;99.90
51253;DHT22;38936;47.808;19.936;2022-10-26T10:32:19;19.30;99.90
51253;DHT22;38936;47.808;19.936;2022-10-26T10:34:49;19.20;99.90
51253;DHT22;38936;47.808;19.936;2022-10-26T10:37:26;19.20;99.90
51253;DHT22;38936;47.808;19.936;2022-10-26T10:40:00;19.20;99.90
51253;DHT22;38936;47.808;19.936;2022-10-26T10:42:30;19.20;99.90
51253;DHT22;38936;47.808;19.936;2022-10-26T10:44:57;19.20;99.90
51253;DHT22;38936;47.808;19.936;2022-10-26T10:47:29;19.10;99.90
51253;DHT22;38936;47.808;19.936;2022-10-26T10:50:06;19.10;99.90
51253;DHT22;38936;47.808;19.936;2022-10-26T10:52:36;19.00;99.90
51253;DHT22;38936;47.808;19.936;2022-10-26T10:55:19;19.10;99.90
51253;DHT22;38936;47.808;19.936;2022-10-26T10:58:09;19.00;99.90
51253;DHT22;38936;47.808;19.936;2022-10-26T11:00:43;19.00;99.90
51253;DHT22;38936;47.808;19.936;2022-10-26T11:06:20;19.10;99.90
51253;DHT22;38936;47.808;19.936;2022-10-26T11:08:59;19.20;99.90
51253;DHT22;38936;47.808;19.936;2022-10-26T11:14:24;19.40;99.90
51253;DHT22;38936;47.808;19.936;2022-10-26T11:19:28;19.40;99.90
51253;DHT22;38936;47.808;19.936;2022-10-26T11:21:56;19.40;99.90
51253;DHT22;38936;47.808;19.936;2022-10-26T11:30:21;19.30;99.90
51253;DHT22;38936;47.808;19.936;2022-10-26T11:32:58;19.20;99.90
51253;DHT22;38936;47.808;19.936;2022-10-26T11:35:36;19.20;99.90
51253;DHT22;38936;47.808;19.936;2022-10-26T11:38:45;19.20;99.90
51253;DHT22;38936;47.808;19.936;2022-10-26T11:41:21;19.50;99.90
51253;DHT22;38936;47.808;19.936;2022-10-26T11:43:52;19.80;99.90
51253;DHT22;38936;47.808;19.936;2022-10-26T11:46:31;20.10;99.90
51253;DHT22;38936;47.808;19.936;2022-10-26T11:51:55;20.40;99.90
51253;DHT22;38936;47.808;19.936;2022-10-26T11:54:43;20.40;99.90
51253;DHT22;38936;47.808;19.936;2022-10-26T11:57:13;20.40;99.90
51253;DHT22;38936;47.808;19.936;2022-10-26T11:59:48;20.50;99.90
51253;DHT22;38936;47.808;19.936;2022-10-26T12:02:20;20.60;99.90
51253;DHT22;38936;47.808;19.936;2022-10-26T12:04:53;20.60;99.90
51253;DHT22;38936;47.808;19.936;2022-10-26T12:07:25;20.60;99.90
51253;DHT22;38936;47.808;19.936;2022-10-26T12:09:51;20.70;99.90
51253;DHT22;38936;47.808;19.936;2022-10-26T12:17:50;20.60;99.90
51253;DHT22;38936;47.808;19.936;2022-10-26T12:23:11;20.40;99.90
51253;DHT22;38936;47.808;19.936;2022-10-26T12:25:38;20.40;99.90
51253;DHT22;38936;47.808;19.936;2022-10-26T12:28:04;20.40;99.90
51253;DHT22;38936;47.808;19.936;2022-10-26T12:30:34;20.40;99.90
51253;DHT22;38936;47.808;19.936;2022-10-26T12:33:03;20.40;99.90
51253;DHT22;38936;47.808;19.936;2022-10-26T12:35:48;20.40;99.90
51253;DHT22;38936;47.808;19.936;2022-10-26T12:41:12;20.10;99.90
51253;DHT22;38936;47.808;19.936;2022-10-26T12:43:42;20.00;99.90
51253;DHT22;38936;47.808;19.936;2022-10-26T12:48:47;19.70;99.90
51253;DHT22;38936;47.808;19.936;2022-10-26T12:59:30;19.50;99.90
51253;DHT22;38936;47.808;19.936;2022-10-26T13:07:34;19.40;99.90
51253;DHT22;38936;47.808;19.936;2022-10-26T13:10:04;19.40;99.90
51253;DHT22;38936;47.808;19.936;2022-10-26T13:13:01;19.40;99.90
51253;DHT22;38936;47.808;19.936;2022-10-26T13:15:50;19.40;99.90
51253;DHT22;38936;47.808;19.936;2022-10-26T13:18:18;19.40;99.90
51253;DHT22;38936;47.808;19.936;2022-10-26T13:21:22;19.40;99.90
51253;DHT22;38936;47.808;19.936;2022-10-26T13:23:55;19.40;99.90
51253;DHT22;38936;47.808;19.936;2022-10-26T13:26:25;19.40;99.90
51253;DHT22;38936;47.808;19.936;2022-10-26T13:34:00;19.20;99.90
51253;DHT22;38936;47.808;19.936;2022-10-26T13:36:37;19.20;99.90
51253;DHT22;38936;47.808;19.936;2022-10-26T13:39:19;19.10;99.90
51253;DHT22;38936;47.808;19.936;2022-10-26T13:41:47;19.00;99.90
51253;DHT22;38936;47.808;19.936;2022-10-26T13:44:21;18.90;99.90
51253;DHT22;38936;47.808;19.936;2022-10-26T13:46:53;18.90;99.90
51253;DHT22;38936;47.808;19.936;2022-10-26T13:49:24;18.90;99.90
51253;DHT22;38936;47.808;19.936;2022-10-26T13:51:52;18.80;99.90
51253;DHT22;38936;47.808;19.936;2022-10-26T13:54:42;18.80;99.90
51253;DHT22;38936;47.808;19.936;2022-10-26T13:57:21;18.80;99.90
51253;DHT22;38936;47.808;19.936;2022-10-26T13:59:49;18.80;99.90
51253;DHT22;38936;47.808;19.936;2022-10-26T14:02:23;18.80;99.90
51253;DHT22;38936;47.808;19.936;2022-10-26T14:05:03;18.80;99.90
51253;DHT22;38936;47.808;19.936;2022-10-26T14:07:43;18.90;99.90
51253;DHT22;38936;47.808;19.936;2022-10-26T14:10:45;18.90;99.90
51253;DHT22;38936;47.808;19.936;2022-10-26T14:13:15;18.90;99.90
51253;DHT22;38936;47.808;19.936;2022-10-26T14:15:44;18.80;99.90
51253;DHT22;38936;47.808;19.936;2022-10-26T14:18:25;18.80;99.90
51253;DHT22;38936;47.808;19.936;2022-10-26T14:21:01;18.80;99.90
51253;DHT22;38936;47.808;19.936;2022-10-26T14:23:33;18.80;99.90
51253;DHT22;38936;47.808;19.936;2022-10-26T14:25:59;18.70;99.90
51253;DHT22;38936;47.808;19.936;2022-10-26T14:28:29;18.70;99.90
51253;DHT22;38936;47.808;19.936;2022-10-26T14:31:32;18.60;99.90
51253;DHT22;38936;47.808;19.936;2022-10-26T14:34:02;18.50;99.90
51253;DHT22;38936;47.808;19.936;2022-10-26T14:36:36;18.40;99.90
51253;DHT22;38936;47.808;19.936;2022-10-26T14:39:14;18.40;99.90
51253;DHT22;38936;47.808;19.936;2022-10-26T14:41:42;18.30;99.90
51253;DHT22;38936;47.808;19.936;2022-10-26T14:44:17;18.30;99.90
51253;DHT22;38936;47.808;19.936;2022-10-26T14:46:44;18.20;99.90
51253;DHT22;38936;47.808;19.936;2022-10-26T14:49:28;18.20;99.90
51253;DHT22;38936;47.808;19.936;2022-10-26T14:52:03;18.10;99.90
51253;DHT22;38936;47.808;19.936;2022-10-26T14:54:29;18.10;99.90
51253;DHT22;38936;47.808;19.936;2022-10-26T14:56:55;18.00;99.90
51253;DHT22;38936;47.808;19.936;2022-10-26T14:59:26;17.90;99.90
51253;DHT22;38936;47.808;19.936;2022-10-26T15:04:33;17.80;99.90
51253;DHT22;38936;47.808;19.936;2022-10-26T15:09:40;17.70;99.90
51253;DHT22;38936;47.808;19.936;2022-10-26T15:12:06;17.60;99.90
51253;DHT22;38936;47.808;19.936;2022-10-26T15:14:42;17.50;99.90
51253;DHT22;38936;47.808;19.936;2022-10-26T15:17:24;17.50;99.90
51253;DHT22;38936;47.808;19.936;2022-10-26T15:19:57;17.40;99.90
51253;DHT22;38936;47.808;19.936;2022-10-26T15:22:27;17.30;99.90
51253;DHT22;38936;47.808;19.936;2022-10-26T15:24:55;17.30;99.90
51253;DHT22;38936;47.808;19.936;2022-10-26T15:27:22;17.20;99.90
51253;DHT22;38936;47.808;19.936;2022-10-26T15:29:49;17.20;99.90
51253;DHT22;38936;47.808;19.936;2022-10-26T15:32:30;17.20;99.90
51253;DHT22;38936;47.808;19.936;2022-10-26T15:37:45;17.00;99.90
51253;DHT22;38936;47.808;19.936;2022-10-26T15:40:11;17.00;99.90
51253;DHT22;38936;47.808;19.936;2022-10-26T15:42:39;16.90;99.90
51253;DHT22;38936;47.808;19.936;2022-10-26T15:47:42;16.90;99.90
51253;DHT22;38936;47.808;19.936;2022-10-26T15:50:12;16.90;99.90
51253;DHT22;38936;47.808;19.936;2022-10-26T15:52:37;16.80;99.90
51253;DHT22;38936;47.808;19.936;2022-10-26T15:55:03;16.80;99.90
51253;DHT22;38936;47.808;19.936;2022-10-26T15:57:29;16.80;99.90
51253;DHT22;38936;47.808;19.936;2022-10-26T15:59:54;16.70;99.90
51253;DHT22;38936;47.808;19.936;2022-10-26T16:02:20;16.70;99.90
51253;DHT22;38936;47.808;19.936;2022-10-26T16:04:46;16.60;99.90
51253;DHT22;38936;47.808;19.936;2022-10-26T16:07:15;16.60;99.90
51253;DHT22;38936;47.808;19.936;2022-10-26T16:09:42;16.60;99.90
51253;DHT22;38936;47.808;19.936;2022-10-26T16:12:12;16.60;99.90
51253;DHT22;38936;47.808;19.936;2022-10-26T16:14:38;16.50;99.90
51253;DHT22;38936;47.808;19.936;2022-10-26T16:17:05;16.50;99.90
51253;DHT22;38936;47.808;19.936;2022-10-26T16:19:32;16.40;99.90
51253;DHT22;38936;47.808;19.936;2022-10-26T16:21:58;16.50;99.90
51253;DHT22;38936;47.808;19.936;2022-10-26T16:24:25;16.50;99.90
51253;DHT22;38936;47.808;19.936;2022-10-26T16:26:51;16.40;99.90
51253;DHT22;38936;47.808;19.936;2022-10-26T16:29:16;16.30;99.90
51253;DHT22;38936;47.808;19.936;2022-10-26T16:31:44;16.30;99.90
51253;DHT22;38936;47.808;19.936;2022-10-26T16:34:09;16.30;99.90
51253;DHT22;38936;47.808;19.936;2022-10-26T16:36:35;16.30;99.90
51253;DHT22;38936;47.808;19.936;2022-10-26T16:39:02;16.30;99.90
51253;DHT22;38936;47.808;19.936;2022-10-26T16:41:28;16.30;99.90
51253;DHT22;38936;47.808;19.936;2022-10-26T16:43:54;16.30;99.90
51253;DHT22;38936;47.808;19.936;2022-10-26T16:46:21;16.30;99.90
51253;DHT22;38936;47.808;19.936;2022-10-26T16:48:48;16.30;99.90
51253;DHT22;38936;47.808;19.936;2022-10-26T16:51:16;16.30;99.90
51253;DHT22;38936;47.808;19.936;2022-10-26T16:53:42;16.20;99.90
51253;DHT22;38936;47.808;19.936;2022-10-26T16:56:13;16.20;99.90
51253;DHT22;38936;47.808;19.936;2022-10-26T16:58:40;16.10;99.90
51253;DHT22;38936;47.808;19.936;2022-10-26T17:01:07;16.10;99.90
51253;DHT22;38936;47.808;19.936;2022-10-26T17:03:33;16.10;99.90
51253;DHT22;38936;47.808;19.936;2022-10-26T17:06:03;16.10;99.90
51253;DHT22;38936;47.808;19.936;2022-10-26T17:08:31;16.10;99.90
51253;DHT22;38936;47.808;19.936;2022-10-26T17:11:03;16.00;99.90
51253;DHT22;38936;47.808;19.936;2022-10-26T17:13:29;16.00;99.90
51253;DHT22;38936;47.808;19.936;2022-10-26T17:16:03;16.00;99.90
51253;DHT22;38936;47.808;19.936;2022-10-26T17:18:29;16.00;99.90
51253;DHT22;38936;47.808;19.936;2022-10-26T17:20:54;16.00;99.90
51253;DHT22;38936;47.808;19.936;2022-10-26T17:23:20;16.00;99.90
51253;DHT22;38936;47.808;19.936;2022-10-26T17:25:46;15.90;99.90
51253;DHT22;38936;47.808;19.936;2022-10-26T17:28:12;15.90;99.90
51253;DHT22;38936;47.808;19.936;2022-10-26T17:30:38;15.90;99.90
51253;DHT22;38936;47.808;19.936;2022-10-26T17:33:04;15.90;99.90
51253;DHT22;38936;47.808;19.936;2022-10-26T17:35:32;15.80;99.90
51253;DHT22;38936;47.808;19.936;2022-10-26T17:37:58;15.80;99.90
51253;DHT22;38936;47.808;19.936;2022-10-26T17:40:23;15.70;99.90
51253;DHT22;38936;47.808;19.936;2022-10-26T17:42:49;15.60;99.90
51253;DHT22;38936;47.808;19.936;2022-10-26T17:45:14;15.60;99.90
51253;DHT22;38936;47.808;19.936;2022-10-26T17:47:40;15.50;99.90
51253;DHT22;38936;47.808;19.936;2022-10-26T17:50:06;15.50;99.90
51253;DHT22;38936;47.808;19.936;2022-10-26T17:52:32;15.50;99.90
51253;DHT22;38936;47.808;19.936;2022-10-26T17:54:57;15.50;99.90
51253;DHT22;38936;47.808;19.936;2022-10-26T17:57:23;15.40;99.90
51253;DHT22;38936;47.808;19.936;2022-10-26T17:59:48;15.40;99.90